22:44
Airports
History
Links
Donate
Help keep this website running!
PayPal
Bitcoin
This page is community maintained. The information is intended for PC simulator navigation or reference.
Always use approved charts for navigation.
U51
Bancroft MuniUpdated 28-Jul-2013
Bancroft Muni (U51)
Bancroft, Idaho, United States (83217)
4
Lat/Lng:42° 43' 14.71" N / 111° 52' 2.84" W
42.720753 / -111.867456
Elevation:5435'ft / 1657mMSL
Declination:E015°
ID / ICAO:U51
FAA:U51
Runways:1
Longest:(07-25) 997.8m / 3,274ft Gravel
Distance To
Airport ID:
Nearby VORs <50NM
Nearby NDBs
Nearby WeatherUpdated 08-22-17 21:53 GMT
Nearby weather at KPIH, Pocatello Rgnl located 39.2 nautical miles from U51
Altimeter: 30.15
Visibility: 10.0 statute miles
Wind: 12 knots (270°)
Temp: 33°c 91°f
Humidity: 11.3%

METAR: KPIH 222153Z 27012G15KT 10SM FEW090 33/M01 A3015 RMK AO2 SLP164 T03281006

(Powered by phpweather)
Runway 07 / 25
Dimensions:997.8 x 9.1m 3274' x 30'ft
Surface:Gravel
Runway 07 [A]Runway 25 [B]
Heading:069°MH  084°TH249°MH   264°TH
Lat:
Lng:
42° 43' 13.29"N
111° 52' 24.8"W
42° 43' 16.12"N
111° 51' 40.88"W
User Notes and Comments
Google Map
Nearby Airports
(R) Simpson 10.5 NM
ID62 SE 137°
(U) Allen H Tigert 15.3 NM
U78 ESE 108°
(U) Downey/hyde Memorial/ 23.9 NM
U58 SSW 211°
(C) Pocatello Rgnl 39.2 NM
KPIH (WX) WNW 289°
(U) Mccarley Fld 41.6 NM
U02 NW 324°
(U) Bear Lake County 42.2 NM
1U7 SE 140°
(U) Preston 42.5 NM
U10 S 183°
VFR Chart
Flight Planning at SkyVector.com